Island Explorer 3 — WDD5656 — position and weather

sailwx.info

Track history (hours):
 
Tides and Currents Weather Stations Pressure Air Temp Water Temp Dewpoint Dewpoint Depression Visibility Wind Speed Wind Dir Waves Ship Positions

Island Explorer 3

Owner: Island Adventures, Inc., Anacortes, WA. More information available from US FCC via Universal Licensing System and Coast Guard Vessel Documentation Center.

Last reported at 2018-Jan-02 22:37 UTC. Time now 2018-Jan-19 19:48 UTC.
Position N 48°20' W 122°32'.
Warning: this ship's position is 16 days out of date.

Type: Passenger vessel. MMSI: 367161570.

Date/timePositionNaut miles runAvg speedWind from/ knotsBaromVisibWave heightAir tempDewpointWater temp
2018-Jan-02 22:37N 48°20' W 122°32'215.7
2018-Jan-02 22:30N 48°19' W 122°30'1014.6
2018-Jan-02 21:50N 48°09' W 122°32'514.9
2018-Jan-02 21:30N 48°05' W 122°27'714.8
2018-Jan-02 21:00N 47°59' W 122°21'714.6
2018-Jan-02 20:31N 47°52' W 122°23'714.8
2018-Jan-02 20:01N 47°44' W 122°25'713.6
2018-Jan-02 19:30N 47°38' W 122°24'3 6.4
2018-Jan-02 19:00N 47°35' W 122°21'0 0.0
2018-Jan-02 18:30N 47°35' W 122°21'0 0.1
2018-Jan-02 18:00N 47°35' W 122°21'1 2.6
2018-Jan-02 17:31N 47°37' W 122°21'19 0.4
2017-Dec-31 21:00N 47°19' W 122°33'816.1
2017-Dec-31 20:30N 47°23' W 122°22'713.2
2017-Dec-31 20:00N 47°29' W 122°25'611.2
2017-Dec-31 19:31N 47°35' W 122°26'4 8.1
2017-Dec-31 19:00N 47°37' W 122°21'0 0.0
2017-Dec-31 18:30N 47°37' W 122°21'0 0.0
2017-Dec-30 23:13N 47°37' W 122°21'0 0.2
2017-Dec-30 23:00N 47°37' W 122°21'4 8.8
2017-Dec-30 22:30N 47°35' W 122°27'510.6
2017-Dec-30 22:00N 47°40' W 122°29'5 9.2
2017-Dec-30 21:30N 47°45' W 122°26'2 3.9
2017-Dec-30 21:00N 47°46' W 122°27'2 3.6
2017-Dec-30 20:30N 47°48' W 122°27'1 2.6
2017-Dec-30 20:00N 47°47' W 122°26'714.0
2017-Dec-30 19:31N 47°40' W 122°27'510.3
2017-Dec-30 19:00N 47°37' W 122°21'0 0.0
2017-Dec-30 18:30N 47°37' W 122°21'0 0.0
2017-Dec-30 18:00N 47°37' W 122°21'0 0.0
2017-Dec-30 17:30N 47°37' W 122°21'0 0.0
2017-Dec-29 00:39N 47°37' W 122°21'0 0.0
2017-Dec-29 00:30N 47°37' W 122°21'0 0.2
2017-Dec-29 00:00N 47°37' W 122°21'510.7
2017-Dec-28 23:30N 47°40' W 122°26'714.8
2017-Dec-28 23:00N 47°48' W 122°24'815.1
2017-Dec-28 22:30N 47°55' W 122°20'611.0
2017-Dec-28 22:00N 47°59' W 122°14'912.2
2017-Dec-28 21:17N 48°06' W 122°22'3 9.9
2017-Dec-28 20:58N 48°03' W 122°21'715.1
2017-Dec-28 20:30N 47°56' W 122°21'816.0
2017-Dec-28 20:00N 47°48' W 122°26'816.6
2017-Dec-28 19:30N 47°40' W 122°27'510.4
2017-Dec-28 19:00N 47°37' W 122°21'0 0.0
2017-Dec-28 18:30N 47°37' W 122°21'0 0.0
2017-Dec-28 18:00N 47°37' W 122°21'0 0.0
2017-Dec-28 17:30N 47°37' W 122°21'0 0.0
2017-Dec-28 17:00N 47°37' W 122°21'0 0.0
2017-Dec-27 00:16N 47°37' W 122°21'0 0.2
2017-Dec-27 00:00N 47°37' W 122°21'611.9
2017-Dec-26 23:30N 47°41' W 122°27'511.0
2017-Dec-26 23:00N 47°46' W 122°28'510.9
2017-Dec-26 22:30N 47°52' W 122°30'711.8
2017-Dec-26 21:57N 47°57' W 122°36'2 4.2
2017-Dec-26 21:26N 47°59' W 122°37'5 8.7
2017-Dec-26 20:51N 47°56' W 122°30'512.6
2017-Dec-26 20:28N 47°53' W 122°25'714.4
2017-Dec-26 20:00N 47°47' W 122°25'714.3
2017-Dec-26 19:31N 47°40' W 122°27'5 9.8
2017-Dec-26 19:00N 47°37' W 122°21'0 0.0
2017-Dec-26 18:30N 47°37' W 122°21'0 0.0
2017-Dec-26 18:00N 47°37' W 122°21'0 0.0
2017-Dec-26 17:30N 47°37' W 122°21'0 0.0
2017-Dec-26 17:00N 47°37' W 122°21'  
2017-Dec-24 00:15N 47°37' W 122°21'0 0.0
2017-Dec-23 23:59N 47°37' W 122°21'0 0.0
2017-Dec-23 23:30N 47°37' W 122°21'3 5.6
2017-Dec-23 23:00N 47°38' W 122°25'  
Track history (hours):
 
Tides and Currents Weather Stations Pressure Air Temp Water Temp Dewpoint Dewpoint Depression Visibility Wind Speed Wind Dir Waves Ship Positions

Island Explorer 3

Owner: Island Adventures, Inc., Anacortes, WA. More information available from US FCC via Universal Licensing System and Coast Guard Vessel Documentation Center.

Last reported at 2018-Jan-02 22:37 UTC. Time now 2018-Jan-19 19:48 UTC.
Position N 48°20' W 122°32'.
Warning: this ship's position is 16 days out of date.

Type: Passenger vessel. MMSI: 367161570.

Date/timePositionNaut miles runAvg speedWind from/ knotsBaromVisibWave heightAir tempDewpointWater temp
2018-Jan-02 22:37N 48°20' W 122°32'215.7
2018-Jan-02 22:30N 48°19' W 122°30'1014.6
2018-Jan-02 21:50N 48°09' W 122°32'514.9
2018-Jan-02 21:30N 48°05' W 122°27'714.8
2018-Jan-02 21:00N 47°59' W 122°21'714.6
2018-Jan-02 20:31N 47°52' W 122°23'714.8
2018-Jan-02 20:01N 47°44' W 122°25'713.6
2018-Jan-02 19:30N 47°38' W 122°24'3 6.4
2018-Jan-02 19:00N 47°35' W 122°21'0 0.0
2018-Jan-02 18:30N 47°35' W 122°21'0 0.1
2018-Jan-02 18:00N 47°35' W 122°21'1 2.6
2018-Jan-02 17:31N 47°37' W 122°21'19 0.4
2017-Dec-31 21:00N 47°19' W 122°33'816.1
2017-Dec-31 20:30N 47°23' W 122°22'713.2
2017-Dec-31 20:00N 47°29' W 122°25'611.2
2017-Dec-31 19:31N 47°35' W 122°26'4 8.1
2017-Dec-31 19:00N 47°37' W 122°21'0 0.0
2017-Dec-31 18:30N 47°37' W 122°21'0 0.0
2017-Dec-30 23:13N 47°37' W 122°21'0 0.2
2017-Dec-30 23:00N 47°37' W 122°21'4 8.8
2017-Dec-30 22:30N 47°35' W 122°27'510.6
2017-Dec-30 22:00N 47°40' W 122°29'5 9.2
2017-Dec-30 21:30N 47°45' W 122°26'2 3.9
2017-Dec-30 21:00N 47°46' W 122°27'2 3.6
2017-Dec-30 20:30N 47°48' W 122°27'1 2.6
2017-Dec-30 20:00N 47°47' W 122°26'714.0
2017-Dec-30 19:31N 47°40' W 122°27'510.3
2017-Dec-30 19:00N 47°37' W 122°21'0 0.0
2017-Dec-30 18:30N 47°37' W 122°21'0 0.0
2017-Dec-30 18:00N 47°37' W 122°21'0 0.0
2017-Dec-30 17:30N 47°37' W 122°21'0 0.0
2017-Dec-29 00:39N 47°37' W 122°21'0 0.0
2017-Dec-29 00:30N 47°37' W 122°21'0 0.2
2017-Dec-29 00:00N 47°37' W 122°21'510.7
2017-Dec-28 23:30N 47°40' W 122°26'714.8
2017-Dec-28 23:00N 47°48' W 122°24'815.1
2017-Dec-28 22:30N 47°55' W 122°20'611.0
2017-Dec-28 22:00N 47°59' W 122°14'912.2
2017-Dec-28 21:17N 48°06' W 122°22'3 9.9
2017-Dec-28 20:58N 48°03' W 122°21'715.1
2017-Dec-28 20:30N 47°56' W 122°21'816.0
2017-Dec-28 20:00N 47°48' W 122°26'816.6
2017-Dec-28 19:30N 47°40' W 122°27'510.4
2017-Dec-28 19:00N 47°37' W 122°21'0 0.0
2017-Dec-28 18:30N 47°37' W 122°21'0 0.0
2017-Dec-28 18:00N 47°37' W 122°21'0 0.0
2017-Dec-28 17:30N 47°37' W 122°21'0 0.0
2017-Dec-28 17:00N 47°37' W 122°21'0 0.0
2017-Dec-27 00:16N 47°37' W 122°21'0 0.2
2017-Dec-27 00:00N 47°37' W 122°21'611.9
2017-Dec-26 23:30N 47°41' W 122°27'511.0
2017-Dec-26 23:00N 47°46' W 122°28'510.9
2017-Dec-26 22:30N 47°52' W 122°30'711.8
2017-Dec-26 21:57N 47°57' W 122°36'2 4.2
2017-Dec-26 21:26N 47°59' W 122°37'5 8.7
2017-Dec-26 20:51N 47°56' W 122°30'512.6
2017-Dec-26 20:28N 47°53' W 122°25'714.4
2017-Dec-26 20:00N 47°47' W 122°25'714.3
2017-Dec-26 19:31N 47°40' W 122°27'5 9.8
2017-Dec-26 19:00N 47°37' W 122°21'0 0.0
2017-Dec-26 18:30N 47°37' W 122°21'0 0.0
2017-Dec-26 18:00N 47°37' W 122°21'0 0.0
2017-Dec-26 17:30N 47°37' W 122°21'0 0.0
2017-Dec-26 17:00N 47°37' W 122°21'  
2017-Dec-24 00:15N 47°37' W 122°21'0 0.0
2017-Dec-23 23:59N 47°37' W 122°21'0 0.0
2017-Dec-23 23:30N 47°37' W 122°21'3 5.6
2017-Dec-23 23:00N 47°38' W 122°25'  

Dump ship's entire track history